KCLL/CLL METAR and TAF weather

Enter ICAO airport designator
Station Type Date Time Source
KCLL METAR 2019/12/13 21:53 UTC NOAA

KCLL 132153Z 29008KT 10SM CLR 23/06 A2980 RMK AO2 SLP087 T02280061


Station Type Date Time Source
KCLL Decoded METAR 2019/12/13 21:53 UTC NOAA

COLLEGE STN EASTERWOOD FIELD, TX, United States (KCLL) 30-35N 096-22W 96M
Dec 13, 2019 - 04:53 PM EST / 2019.12.13 2153 UTC
Wind: from the WNW (290 degrees) at 9 MPH (8 KT):0
Visibility: 10 mile(s):0
Sky conditions: clear
Temperature: 73.0 F (22.8 C)
Dew Point: 43.0 F (6.1 C)
Relative Humidity: 33%
Pressure (altimeter): 29.8 in. Hg (1009 hPa)
ob: KCLL 132153Z 29008KT 10SM CLR 23/06 A2980 RMK AO2 SLP087 T02280061
cycle: 22

Station Type Date Time Source
KCLL TAF 2019/12/13 18:24 UTC NOAA

TAF KCLL 131722Z 1318/1418 23011KT P6SM SCT020
FM131900 24011KT P6SM FEW250
FM132000 27010KT P6SM SKC
FM132200 32010KT P6SM SKC
FM140400 VRB04KT P6SM SKC

Example: see airport list